Terminal Aerodrome Forecast
Issued by NWS

Home | Current Version | Previous Version | Text Only | Print | Product List | Glossary On
Versions: 1 2 3 4 5 6 7 8 9 10 11 12 13 14 15 16 17 18 19 20 21
000
FTUS43 KDVN 180745 AAA
TAFBRL
TAF AMD
KBRL 180745Z 1808/1906 23006KT P6SM BKN020 OVC035
     FM181500 23007KT P6SM BKN025
     FM181800 24011KT P6SM SCT020 SCT250
     FM182300 23007KT P6SM SKC=

USA.gov is the U.S. government's official web portal to all federal, state and local government web resources and services.